sensor_id;sensor_type;location;lat;lon;timestamp;temperature;humidity
24614;DHT22;12760;46.296;25.290;2022-07-17T00:00:47;19.70;92.90
24614;DHT22;12760;46.296;25.290;2022-07-17T00:03:16;19.70;92.80
24614;DHT22;12760;46.296;25.290;2022-07-17T00:05:42;19.60;92.90
24614;DHT22;12760;46.296;25.290;2022-07-17T00:08:09;19.70;92.70
24614;DHT22;12760;46.296;25.290;2022-07-17T00:10:37;19.60;92.70
24614;DHT22;12760;46.296;25.290;2022-07-17T00:13:03;19.50;93.00
24614;DHT22;12760;46.296;25.290;2022-07-17T00:15:29;19.40;93.00
24614;DHT22;12760;46.296;25.290;2022-07-17T00:17:55;19.50;92.80
24614;DHT22;12760;46.296;25.290;2022-07-17T00:20:21;19.50;92.70
24614;DHT22;12760;46.296;25.290;2022-07-17T00:22:47;19.50;92.70
24614;DHT22;12760;46.296;25.290;2022-07-17T00:25:13;19.30;93.00
24614;DHT22;12760;46.296;25.290;2022-07-17T00:27:39;19.40;92.90
24614;DHT22;12760;46.296;25.290;2022-07-17T00:30:05;19.30;92.90
24614;DHT22;12760;46.296;25.290;2022-07-17T00:32:31;19.40;92.90
24614;DHT22;12760;46.296;25.290;2022-07-17T00:34:57;19.40;92.80
24614;DHT22;12760;46.296;25.290;2022-07-17T00:37:23;19.20;92.90
24614;DHT22;12760;46.296;25.290;2022-07-17T00:39:49;19.20;93.10
24614;DHT22;12760;46.296;25.290;2022-07-17T00:42:16;19.10;93.10
24614;DHT22;12760;46.296;25.290;2022-07-17T00:44:42;19.10;93.10
24614;DHT22;12760;46.296;25.290;2022-07-17T00:47:16;19.10;93.10
24614;DHT22;12760;46.296;25.290;2022-07-17T00:49:43;19.20;93.00
24614;DHT22;12760;46.296;25.290;2022-07-17T00:52:10;19.20;93.00
24614;DHT22;12760;46.296;25.290;2022-07-17T00:54:39;19.10;93.10
24614;DHT22;12760;46.296;25.290;2022-07-17T00:57:07;19.00;93.30
24614;DHT22;12760;46.296;25.290;2022-07-17T00:59:34;18.90;93.30
24614;DHT22;12760;46.296;25.290;2022-07-17T01:02:03;18.90;93.20
24614;DHT22;12760;46.296;25.290;2022-07-17T01:04:29;18.90;93.20
24614;DHT22;12760;46.296;25.290;2022-07-17T01:06:55;18.80;93.10
24614;DHT22;12760;46.296;25.290;2022-07-17T01:09:20;18.90;93.10
24614;DHT22;12760;46.296;25.290;2022-07-17T01:11:46;18.80;93.20
24614;DHT22;12760;46.296;25.290;2022-07-17T01:14:13;18.90;93.20
24614;DHT22;12760;46.296;25.290;2022-07-17T01:16:39;18.90;93.00
24614;DHT22;12760;46.296;25.290;2022-07-17T01:19:07;18.70;93.10
24614;DHT22;12760;46.296;25.290;2022-07-17T01:21:44;18.70;93.10
24614;DHT22;12760;46.296;25.290;2022-07-17T01:24:10;18.70;93.20
24614;DHT22;12760;46.296;25.290;2022-07-17T01:26:36;18.50;93.30
24614;DHT22;12760;46.296;25.290;2022-07-17T01:29:03;18.50;93.30
24614;DHT22;12760;46.296;25.290;2022-07-17T01:31:29;18.50;93.30
24614;DHT22;12760;46.296;25.290;2022-07-17T01:33:55;18.40;93.40
24614;DHT22;12760;46.296;25.290;2022-07-17T01:36:25;18.30;93.60
24614;DHT22;12760;46.296;25.290;2022-07-17T01:38:51;18.30;93.60
24614;DHT22;12760;46.296;25.290;2022-07-17T01:41:17;18.20;93.60
24614;DHT22;12760;46.296;25.290;2022-07-17T01:43:43;18.20;93.60
24614;DHT22;12760;46.296;25.290;2022-07-17T01:46:08;18.20;93.70
24614;DHT22;12760;46.296;25.290;2022-07-17T01:48:34;18.20;93.60
24614;DHT22;12760;46.296;25.290;2022-07-17T01:51:00;18.20;93.70
24614;DHT22;12760;46.296;25.290;2022-07-17T01:53:26;18.20;93.70
24614;DHT22;12760;46.296;25.290;2022-07-17T01:55:53;18.30;93.50
24614;DHT22;12760;46.296;25.290;2022-07-17T01:58:19;18.20;93.60
24614;DHT22;12760;46.296;25.290;2022-07-17T02:00:45;18.10;93.80
24614;DHT22;12760;46.296;25.290;2022-07-17T02:03:10;18.10;93.70
24614;DHT22;12760;46.296;25.290;2022-07-17T02:05:36;18.20;93.60
24614;DHT22;12760;46.296;25.290;2022-07-17T02:08:02;18.20;93.60
24614;DHT22;12760;46.296;25.290;2022-07-17T02:10:28;18.20;93.60
24614;DHT22;12760;46.296;25.290;2022-07-17T02:12:54;18.20;93.60
24614;DHT22;12760;46.296;25.290;2022-07-17T02:15:20;18.10;93.70
24614;DHT22;12760;46.296;25.290;2022-07-17T02:17:46;18.10;93.60
24614;DHT22;12760;46.296;25.290;2022-07-17T02:20:12;18.20;93.30
24614;DHT22;12760;46.296;25.290;2022-07-17T02:22:38;18.20;93.30
24614;DHT22;12760;46.296;25.290;2022-07-17T02:25:05;18.20;93.30
24614;DHT22;12760;46.296;25.290;2022-07-17T02:27:32;18.30;93.50
24614;DHT22;12760;46.296;25.290;2022-07-17T02:29:58;18.30;93.40
24614;DHT22;12760;46.296;25.290;2022-07-17T02:32:23;18.30;93.30
24614;DHT22;12760;46.296;25.290;2022-07-17T02:34:49;18.40;93.40
24614;DHT22;12760;46.296;25.290;2022-07-17T02:37:15;18.40;93.30
24614;DHT22;12760;46.296;25.290;2022-07-17T02:39:41;18.30;93.40
24614;DHT22;12760;46.296;25.290;2022-07-17T02:42:22;18.20;93.50
24614;DHT22;12760;46.296;25.290;2022-07-17T02:44:48;18.20;93.40
24614;DHT22;12760;46.296;25.290;2022-07-17T02:47:24;18.30;93.50
24614;DHT22;12760;46.296;25.290;2022-07-17T02:49:51;18.20;93.40
24614;DHT22;12760;46.296;25.290;2022-07-17T02:52:17;18.20;93.50
24614;DHT22;12760;46.296;25.290;2022-07-17T02:54:43;18.20;93.50
24614;DHT22;12760;46.296;25.290;2022-07-17T02:57:09;18.00;93.40
24614;DHT22;12760;46.296;25.290;2022-07-17T02:59:35;17.90;93.50
24614;DHT22;12760;46.296;25.290;2022-07-17T03:02:01;17.80;93.70
24614;DHT22;12760;46.296;25.290;2022-07-17T03:04:27;17.70;93.70
24614;DHT22;12760;46.296;25.290;2022-07-17T03:06:52;17.50;94.00
24614;DHT22;12760;46.296;25.290;2022-07-17T03:09:18;17.50;94.10
24614;DHT22;12760;46.296;25.290;2022-07-17T03:11:44;17.50;94.10
24614;DHT22;12760;46.296;25.290;2022-07-17T03:14:10;17.40;94.30
24614;DHT22;12760;46.296;25.290;2022-07-17T03:16:35;17.30;94.20
24614;DHT22;12760;46.296;25.290;2022-07-17T03:19:01;17.50;94.40
24614;DHT22;12760;46.296;25.290;2022-07-17T03:21:27;17.50;94.10
24614;DHT22;12760;46.296;25.290;2022-07-17T03:23:53;17.70;93.90
24614;DHT22;12760;46.296;25.290;2022-07-17T03:26:18;17.70;93.70
24614;DHT22;12760;46.296;25.290;2022-07-17T03:28:44;17.70;93.60
24614;DHT22;12760;46.296;25.290;2022-07-17T03:31:10;17.70;93.70
24614;DHT22;12760;46.296;25.290;2022-07-17T03:33:36;17.60;94.00
24614;DHT22;12760;46.296;25.290;2022-07-17T03:36:01;17.50;94.20
24614;DHT22;12760;46.296;25.290;2022-07-17T03:38:27;17.40;94.40
24614;DHT22;12760;46.296;25.290;2022-07-17T03:40:53;17.40;94.40
24614;DHT22;12760;46.296;25.290;2022-07-17T03:43:19;17.30;94.40
24614;DHT22;12760;46.296;25.290;2022-07-17T03:45:44;17.40;94.40
24614;DHT22;12760;46.296;25.290;2022-07-17T03:48:10;17.30;94.50
24614;DHT22;12760;46.296;25.290;2022-07-17T03:50:36;17.30;94.40
24614;DHT22;12760;46.296;25.290;2022-07-17T03:53:01;17.30;94.50
24614;DHT22;12760;46.296;25.290;2022-07-17T03:55:27;17.10;94.80
24614;DHT22;12760;46.296;25.290;2022-07-17T03:57:53;17.20;94.70
24614;DHT22;12760;46.296;25.290;2022-07-17T04:00:19;17.40;94.50
24614;DHT22;12760;46.296;25.290;2022-07-17T04:02:45;17.50;94.50
24614;DHT22;12760;46.296;25.290;2022-07-17T04:05:10;17.50;94.50
24614;DHT22;12760;46.296;25.290;2022-07-17T04:07:41;17.60;94.60
24614;DHT22;12760;46.296;25.290;2022-07-17T04:10:08;17.70;94.40
24614;DHT22;12760;46.296;25.290;2022-07-17T04:12:34;17.70;94.20
24614;DHT22;12760;46.296;25.290;2022-07-17T04:15:01;17.70;94.30
24614;DHT22;12760;46.296;25.290;2022-07-17T04:17:26;17.70;94.30
24614;DHT22;12760;46.296;25.290;2022-07-17T04:19:52;17.60;94.60
24614;DHT22;12760;46.296;25.290;2022-07-17T04:22:18;17.50;94.80
24614;DHT22;12760;46.296;25.290;2022-07-17T04:24:44;17.30;95.20
24614;DHT22;12760;46.296;25.290;2022-07-17T04:27:10;17.30;95.30
24614;DHT22;12760;46.296;25.290;2022-07-17T04:29:37;17.30;95.10
24614;DHT22;12760;46.296;25.290;2022-07-17T04:32:03;17.40;95.00
24614;DHT22;12760;46.296;25.290;2022-07-17T04:34:29;17.50;95.00
24614;DHT22;12760;46.296;25.290;2022-07-17T04:36:55;17.40;95.20
24614;DHT22;12760;46.296;25.290;2022-07-17T04:39:21;17.40;95.20
24614;DHT22;12760;46.296;25.290;2022-07-17T04:41:48;17.30;95.40
24614;DHT22;12760;46.296;25.290;2022-07-17T04:44:14;17.40;95.20
24614;DHT22;12760;46.296;25.290;2022-07-17T04:46:40;17.40;95.20
24614;DHT22;12760;46.296;25.290;2022-07-17T04:49:05;17.40;95.20
24614;DHT22;12760;46.296;25.290;2022-07-17T04:51:31;17.50;95.20
24614;DHT22;12760;46.296;25.290;2022-07-17T04:53:57;17.40;95.30
24614;DHT22;12760;46.296;25.290;2022-07-17T04:56:22;17.40;95.20
24614;DHT22;12760;46.296;25.290;2022-07-17T04:58:48;17.40;95.30
24614;DHT22;12760;46.296;25.290;2022-07-17T05:01:14;17.50;95.40
24614;DHT22;12760;46.296;25.290;2022-07-17T05:03:39;17.60;95.30
24614;DHT22;12760;46.296;25.290;2022-07-17T05:06:05;17.60;95.30
24614;DHT22;12760;46.296;25.290;2022-07-17T05:08:33;17.60;95.50
24614;DHT22;12760;46.296;25.290;2022-07-17T05:10:58;17.70;95.40
24614;DHT22;12760;46.296;25.290;2022-07-17T05:13:24;17.70;95.30
24614;DHT22;12760;46.296;25.290;2022-07-17T05:15:51;17.70;95.30
24614;DHT22;12760;46.296;25.290;2022-07-17T05:18:16;17.80;95.30
24614;DHT22;12760;46.296;25.290;2022-07-17T05:20:42;17.80;95.20
24614;DHT22;12760;46.296;25.290;2022-07-17T05:23:08;17.80;95.30
24614;DHT22;12760;46.296;25.290;2022-07-17T05:25:34;17.80;95.30
24614;DHT22;12760;46.296;25.290;2022-07-17T05:27:59;17.90;95.40
24614;DHT22;12760;46.296;25.290;2022-07-17T05:30:27;17.80;95.30
24614;DHT22;12760;46.296;25.290;2022-07-17T05:32:53;17.80;95.60
24614;DHT22;12760;46.296;25.290;2022-07-17T05:35:18;17.90;95.70
24614;DHT22;12760;46.296;25.290;2022-07-17T05:37:44;17.90;95.60
24614;DHT22;12760;46.296;25.290;2022-07-17T05:40:10;18.10;95.50
24614;DHT22;12760;46.296;25.290;2022-07-17T05:42:36;18.20;95.70
24614;DHT22;12760;46.296;25.290;2022-07-17T05:45:02;18.40;95.50
24614;DHT22;12760;46.296;25.290;2022-07-17T05:47:28;18.60;95.20
24614;DHT22;12760;46.296;25.290;2022-07-17T05:49:54;19.00;94.80
24614;DHT22;12760;46.296;25.290;2022-07-17T05:52:20;19.30;94.60
24614;DHT22;12760;46.296;25.290;2022-07-17T05:54:46;19.70;94.10
24614;DHT22;12760;46.296;25.290;2022-07-17T05:57:11;19.90;93.70
24614;DHT22;12760;46.296;25.290;2022-07-17T05:59:37;20.10;93.80
24614;DHT22;12760;46.296;25.290;2022-07-17T06:02:03;20.20;93.60
24614;DHT22;12760;46.296;25.290;2022-07-17T06:04:30;20.30;93.20
24614;DHT22;12760;46.296;25.290;2022-07-17T06:06:55;20.60;93.10
24614;DHT22;12760;46.296;25.290;2022-07-17T06:09:21;20.70;93.00
24614;DHT22;12760;46.296;25.290;2022-07-17T06:11:47;20.80;92.50
24614;DHT22;12760;46.296;25.290;2022-07-17T06:14:13;20.90;92.40
24614;DHT22;12760;46.296;25.290;2022-07-17T06:16:38;21.10;92.30
24614;DHT22;12760;46.296;25.290;2022-07-17T06:19:04;21.40;92.20
24614;DHT22;12760;46.296;25.290;2022-07-17T06:21:30;21.50;91.80
24614;DHT22;12760;46.296;25.290;2022-07-17T06:23:55;21.70;91.40
24614;DHT22;12760;46.296;25.290;2022-07-17T06:26:21;21.80;91.60
24614;DHT22;12760;46.296;25.290;2022-07-17T06:28:47;21.90;91.10
24614;DHT22;12760;46.296;25.290;2022-07-17T06:31:13;22.20;91.20
24614;DHT22;12760;46.296;25.290;2022-07-17T06:33:39;22.30;90.20
24614;DHT22;12760;46.296;25.290;2022-07-17T06:36:04;22.60;90.00
24614;DHT22;12760;46.296;25.290;2022-07-17T06:38:32;23.00;87.40
24614;DHT22;12760;46.296;25.290;2022-07-17T06:40:58;23.30;84.30
24614;DHT22;12760;46.296;25.290;2022-07-17T06:43:24;23.60;86.30
24614;DHT22;12760;46.296;25.290;2022-07-17T06:45:50;23.80;86.70
24614;DHT22;12760;46.296;25.290;2022-07-17T06:48:19;24.10;86.10
24614;DHT22;12760;46.296;25.290;2022-07-17T06:50:45;24.30;83.80
24614;DHT22;12760;46.296;25.290;2022-07-17T06:53:11;24.40;82.40
24614;DHT22;12760;46.296;25.290;2022-07-17T06:55:37;24.60;82.50
24614;DHT22;12760;46.296;25.290;2022-07-17T06:58:03;24.90;81.90
24614;DHT22;12760;46.296;25.290;2022-07-17T07:00:29;25.10;82.00
24614;DHT22;12760;46.296;25.290;2022-07-17T07:02:55;25.30;79.40
24614;DHT22;12760;46.296;25.290;2022-07-17T07:05:20;25.40;78.10
24614;DHT22;12760;46.296;25.290;2022-07-17T07:07:46;25.50;78.40
24614;DHT22;12760;46.296;25.290;2022-07-17T07:10:13;25.60;77.80
24614;DHT22;12760;46.296;25.290;2022-07-17T07:12:39;25.70;78.10
24614;DHT22;12760;46.296;25.290;2022-07-17T07:15:05;25.80;78.40
24614;DHT22;12760;46.296;25.290;2022-07-17T07:17:34;25.80;76.00
24614;DHT22;12760;46.296;25.290;2022-07-17T07:20:01;25.80;77.20
24614;DHT22;12760;46.296;25.290;2022-07-17T07:22:26;25.70;76.00
24614;DHT22;12760;46.296;25.290;2022-07-17T07:24:52;25.70;77.10
24614;DHT22;12760;46.296;25.290;2022-07-17T07:27:18;25.80;77.20
24614;DHT22;12760;46.296;25.290;2022-07-17T07:29:43;26.00;77.90
24614;DHT22;12760;46.296;25.290;2022-07-17T07:32:09;26.10;75.90
24614;DHT22;12760;46.296;25.290;2022-07-17T07:34:35;26.00;74.80
24614;DHT22;12760;46.296;25.290;2022-07-17T07:37:01;26.10;76.00
24614;DHT22;12760;46.296;25.290;2022-07-17T07:39:27;26.30;75.80
24614;DHT22;12760;46.296;25.290;2022-07-17T07:41:53;26.10;75.60
24614;DHT22;12760;46.296;25.290;2022-07-17T07:44:19;26.10;75.90
24614;DHT22;12760;46.296;25.290;2022-07-17T07:46:44;26.20;75.80
24614;DHT22;12760;46.296;25.290;2022-07-17T07:49:10;26.20;76.40
24614;DHT22;12760;46.296;25.290;2022-07-17T07:51:36;26.40;76.00
24614;DHT22;12760;46.296;25.290;2022-07-17T07:54:02;26.60;75.20
24614;DHT22;12760;46.296;25.290;2022-07-17T07:56:27;26.70;75.20
24614;DHT22;12760;46.296;25.290;2022-07-17T07:58:53;26.90;75.80
24614;DHT22;12760;46.296;25.290;2022-07-17T08:01:19;26.90;75.20
24614;DHT22;12760;46.296;25.290;2022-07-17T08:03:45;27.10;75.70
24614;DHT22;12760;46.296;25.290;2022-07-17T08:06:10;27.30;75.00
24614;DHT22;12760;46.296;25.290;2022-07-17T08:08:36;27.20;74.00
24614;DHT22;12760;46.296;25.290;2022-07-17T08:11:02;27.30;75.00
24614;DHT22;12760;46.296;25.290;2022-07-17T08:13:28;27.30;74.90
24614;DHT22;12760;46.296;25.290;2022-07-17T08:15:54;27.10;73.20
24614;DHT22;12760;46.296;25.290;2022-07-17T08:18:19;27.10;74.50
24614;DHT22;12760;46.296;25.290;2022-07-17T08:20:45;27.20;75.40
24614;DHT22;12760;46.296;25.290;2022-07-17T08:23:11;27.20;73.60
24614;DHT22;12760;46.296;25.290;2022-07-17T08:25:37;27.20;73.80
24614;DHT22;12760;46.296;25.290;2022-07-17T08:28:04;27.30;74.60
24614;DHT22;12760;46.296;25.290;2022-07-17T08:30:30;27.40;73.70
24614;DHT22;12760;46.296;25.290;2022-07-17T08:33:01;27.60;74.30
24614;DHT22;12760;46.296;25.290;2022-07-17T08:35:27;27.70;72.30
24614;DHT22;12760;46.296;25.290;2022-07-17T08:37:53;27.60;72.30
24614;DHT22;12760;46.296;25.290;2022-07-17T08:40:31;27.50;70.50
24614;DHT22;12760;46.296;25.290;2022-07-17T08:42:58;27.50;70.80
24614;DHT22;12760;46.296;25.290;2022-07-17T08:45:25;27.60;70.70
24614;DHT22;12760;46.296;25.290;2022-07-17T08:47:52;27.50;69.80
24614;DHT22;12760;46.296;25.290;2022-07-17T08:50:25;27.60;70.80
24614;DHT22;12760;46.296;25.290;2022-07-17T08:52:51;27.70;69.00
24614;DHT22;12760;46.296;25.290;2022-07-17T08:55:17;27.50;68.50
24614;DHT22;12760;46.296;25.290;2022-07-17T08:57:45;27.50;68.40
24614;DHT22;12760;46.296;25.290;2022-07-17T09:00:15;27.40;68.60
24614;DHT22;12760;46.296;25.290;2022-07-17T09:03:03;27.40;69.30
24614;DHT22;12760;46.296;25.290;2022-07-17T09:05:34;27.40;69.90
24614;DHT22;12760;46.296;25.290;2022-07-17T09:08:01;27.50;69.60
24614;DHT22;12760;46.296;25.290;2022-07-17T09:10:47;27.50;70.20
24614;DHT22;12760;46.296;25.290;2022-07-17T09:13:28;27.60;69.70
24614;DHT22;12760;46.296;25.290;2022-07-17T09:16:08;27.60;69.40
24614;DHT22;12760;46.296;25.290;2022-07-17T09:18:44;27.70;68.30
24614;DHT22;12760;46.296;25.290;2022-07-17T09:21:27;28.00;68.90
24614;DHT22;12760;46.296;25.290;2022-07-17T09:24:05;28.10;67.90
24614;DHT22;12760;46.296;25.290;2022-07-17T09:26:34;28.10;67.90
24614;DHT22;12760;46.296;25.290;2022-07-17T09:29:03;28.30;65.90
24614;DHT22;12760;46.296;25.290;2022-07-17T09:31:32;28.40;66.50
24614;DHT22;12760;46.296;25.290;2022-07-17T09:33:58;28.20;67.40
24614;DHT22;12760;46.296;25.290;2022-07-17T09:36:25;28.20;65.40
24614;DHT22;12760;46.296;25.290;2022-07-17T09:38:55;28.20;64.80
24614;DHT22;12760;46.296;25.290;2022-07-17T09:41:23;28.30;64.10
24614;DHT22;12760;46.296;25.290;2022-07-17T09:43:55;28.00;61.60
24614;DHT22;12760;46.296;25.290;2022-07-17T09:46:34;28.10;63.80
24614;DHT22;12760;46.296;25.290;2022-07-17T09:49:04;28.30;65.20
24614;DHT22;12760;46.296;25.290;2022-07-17T09:51:35;28.20;65.70
24614;DHT22;12760;46.296;25.290;2022-07-17T09:54:06;28.00;67.50
24614;DHT22;12760;46.296;25.290;2022-07-17T09:56:35;27.80;66.90
24614;DHT22;12760;46.296;25.290;2022-07-17T09:59:09;27.90;66.30
24614;DHT22;12760;46.296;25.290;2022-07-17T10:01:37;28.10;66.90
24614;DHT22;12760;46.296;25.290;2022-07-17T10:04:04;28.10;66.60
24614;DHT22;12760;46.296;25.290;2022-07-17T10:06:30;28.10;67.30
24614;DHT22;12760;46.296;25.290;2022-07-17T10:08:56;28.00;67.10
24614;DHT22;12760;46.296;25.290;2022-07-17T10:11:27;27.80;67.60
24614;DHT22;12760;46.296;25.290;2022-07-17T10:13:55;27.70;67.20
24614;DHT22;12760;46.296;25.290;2022-07-17T10:16:26;27.60;66.40
24614;DHT22;12760;46.296;25.290;2022-07-17T10:18:52;27.50;66.10
24614;DHT22;12760;46.296;25.290;2022-07-17T10:21:21;27.60;65.10
24614;DHT22;12760;46.296;25.290;2022-07-17T10:26:54;27.80;64.70
24614;DHT22;12760;46.296;25.290;2022-07-17T10:31:54;27.50;64.10
24614;DHT22;12760;46.296;25.290;2022-07-17T10:34:43;27.40;63.30
24614;DHT22;12760;46.296;25.290;2022-07-17T10:37:24;27.40;62.60
24614;DHT22;12760;46.296;25.290;2022-07-17T10:40:18;27.30;62.80
24614;DHT22;12760;46.296;25.290;2022-07-17T10:45:18;27.60;63.20
24614;DHT22;12760;46.296;25.290;2022-07-17T10:50:32;27.90;60.80
24614;DHT22;12760;46.296;25.290;2022-07-17T10:55:55;28.00;58.30
24614;DHT22;12760;46.296;25.290;2022-07-17T10:58:32;28.00;59.50
24614;DHT22;12760;46.296;25.290;2022-07-17T11:01:05;28.10;60.10
24614;DHT22;12760;46.296;25.290;2022-07-17T11:03:46;28.10;60.50
24614;DHT22;12760;46.296;25.290;2022-07-17T11:06:26;28.00;60.50
24614;DHT22;12760;46.296;25.290;2022-07-17T11:08:59;27.80;61.30
24614;DHT22;12760;46.296;25.290;2022-07-17T11:11:44;27.70;60.70
24614;DHT22;12760;46.296;25.290;2022-07-17T11:14:28;27.60;60.20
24614;DHT22;12760;46.296;25.290;2022-07-17T11:16:56;27.50;59.50
24614;DHT22;12760;46.296;25.290;2022-07-17T11:19:35;27.50;59.80
24614;DHT22;12760;46.296;25.290;2022-07-17T11:22:03;27.60;58.30
24614;DHT22;12760;46.296;25.290;2022-07-17T11:27:06;27.80;57.50
24614;DHT22;12760;46.296;25.290;2022-07-17T11:29:41;27.90;58.00
24614;DHT22;12760;46.296;25.290;2022-07-17T11:32:07;28.10;59.50
24614;DHT22;12760;46.296;25.290;2022-07-17T11:34:33;28.00;58.10
24614;DHT22;12760;46.296;25.290;2022-07-17T11:37:04;28.10;58.60
24614;DHT22;12760;46.296;25.290;2022-07-17T11:39:41;28.10;58.10
24614;DHT22;12760;46.296;25.290;2022-07-17T11:42:19;27.90;58.00
24614;DHT22;12760;46.296;25.290;2022-07-17T11:44:45;27.90;57.80
24614;DHT22;12760;46.296;25.290;2022-07-17T11:47:18;28.10;56.50
24614;DHT22;12760;46.296;25.290;2022-07-17T11:49:44;28.00;57.00
24614;DHT22;12760;46.296;25.290;2022-07-17T11:52:18;28.00;57.60
24614;DHT22;12760;46.296;25.290;2022-07-17T11:54:54;27.90;57.40
24614;DHT22;12760;46.296;25.290;2022-07-17T11:57:22;27.70;56.80
24614;DHT22;12760;46.296;25.290;2022-07-17T11:59:49;27.70;58.20
24614;DHT22;12760;46.296;25.290;2022-07-17T12:02:17;27.90;57.90
24614;DHT22;12760;46.296;25.290;2022-07-17T12:04:52;27.90;58.00
24614;DHT22;12760;46.296;25.290;2022-07-17T12:07:19;27.90;58.20
24614;DHT22;12760;46.296;25.290;2022-07-17T12:09:45;27.80;57.80
24614;DHT22;12760;46.296;25.290;2022-07-17T12:12:24;27.90;58.00
24614;DHT22;12760;46.296;25.290;2022-07-17T12:14:58;27.90;57.20
24614;DHT22;12760;46.296;25.290;2022-07-17T12:17:36;28.00;57.30
24614;DHT22;12760;46.296;25.290;2022-07-17T12:20:07;28.10;56.80
24614;DHT22;12760;46.296;25.290;2022-07-17T12:22:46;28.10;57.20
24614;DHT22;12760;46.296;25.290;2022-07-17T12:25:26;28.20;57.40
24614;DHT22;12760;46.296;25.290;2022-07-17T12:27:52;28.30;56.70
24614;DHT22;12760;46.296;25.290;2022-07-17T12:30:18;28.40;57.20
24614;DHT22;12760;46.296;25.290;2022-07-17T12:32:45;28.30;56.20
24614;DHT22;12760;46.296;25.290;2022-07-17T12:35:11;28.30;58.60
24614;DHT22;12760;46.296;25.290;2022-07-17T12:37:36;28.30;56.50
24614;DHT22;12760;46.296;25.290;2022-07-17T12:40:02;28.10;57.10
24614;DHT22;12760;46.296;25.290;2022-07-17T12:56:03;28.10;57.90
24614;DHT22;12760;46.296;25.290;2022-07-17T12:58:29;28.20;56.90
24614;DHT22;12760;46.296;25.290;2022-07-17T13:00:55;28.30;55.40
24614;DHT22;12760;46.296;25.290;2022-07-17T13:03:21;28.30;56.10
24614;DHT22;12760;46.296;25.290;2022-07-17T13:05:47;28.30;56.10
24614;DHT22;12760;46.296;25.290;2022-07-17T13:08:14;28.30;56.20
24614;DHT22;12760;46.296;25.290;2022-07-17T13:10:40;28.30;56.40
24614;DHT22;12760;46.296;25.290;2022-07-17T13:13:06;28.20;55.50
24614;DHT22;12760;46.296;25.290;2022-07-17T13:15:32;28.20;55.60
24614;DHT22;12760;46.296;25.290;2022-07-17T13:17:57;28.20;56.40
24614;DHT22;12760;46.296;25.290;2022-07-17T13:20:23;28.20;55.70
24614;DHT22;12760;46.296;25.290;2022-07-17T13:22:49;28.10;55.00
24614;DHT22;12760;46.296;25.290;2022-07-17T13:25:15;28.00;54.80
24614;DHT22;12760;46.296;25.290;2022-07-17T13:27:40;28.10;56.70
24614;DHT22;12760;46.296;25.290;2022-07-17T13:30:07;28.00;55.90
24614;DHT22;12760;46.296;25.290;2022-07-17T13:32:32;27.90;56.10
24614;DHT22;12760;46.296;25.290;2022-07-17T13:34:58;27.90;55.90
24614;DHT22;12760;46.296;25.290;2022-07-17T13:37:24;28.00;55.30
24614;DHT22;12760;46.296;25.290;2022-07-17T13:39:50;27.90;54.90
24614;DHT22;12760;46.296;25.290;2022-07-17T13:42:15;27.80;55.10
24614;DHT22;12760;46.296;25.290;2022-07-17T13:44:41;27.80;55.20
24614;DHT22;12760;46.296;25.290;2022-07-17T13:47:07;27.80;54.60
24614;DHT22;12760;46.296;25.290;2022-07-17T13:49:32;27.70;56.00
24614;DHT22;12760;46.296;25.290;2022-07-17T13:51:58;27.90;56.00
24614;DHT22;12760;46.296;25.290;2022-07-17T15:57:49;25.20;55.40
24614;DHT22;12760;46.296;25.290;2022-07-17T16:00:14;26.20;54.50
24614;DHT22;12760;46.296;25.290;2022-07-17T16:02:40;26.40;55.10
24614;DHT22;12760;46.296;25.290;2022-07-17T16:05:06;26.50;55.10
24614;DHT22;12760;46.296;25.290;2022-07-17T16:07:32;26.50;54.60
24614;DHT22;12760;46.296;25.290;2022-07-17T16:09:58;26.50;55.30
24614;DHT22;12760;46.296;25.290;2022-07-17T16:12:24;26.50;55.80
24614;DHT22;12760;46.296;25.290;2022-07-17T16:14:49;26.50;56.00
24614;DHT22;12760;46.296;25.290;2022-07-17T16:17:16;26.50;56.30
24614;DHT22;12760;46.296;25.290;2022-07-17T16:19:41;26.50;56.00
24614;DHT22;12760;46.296;25.290;2022-07-17T16:22:07;26.50;56.90
24614;DHT22;12760;46.296;25.290;2022-07-17T16:24:33;26.50;56.90
24614;DHT22;12760;46.296;25.290;2022-07-17T16:27:02;26.40;56.30
24614;DHT22;12760;46.296;25.290;2022-07-17T16:29:28;26.30;56.40
24614;DHT22;12760;46.296;25.290;2022-07-17T16:31:53;26.30;57.10
24614;DHT22;12760;46.296;25.290;2022-07-17T16:34:21;26.30;56.90
24614;DHT22;12760;46.296;25.290;2022-07-17T16:36:46;26.30;57.70
24614;DHT22;12760;46.296;25.290;2022-07-17T16:39:12;26.30;57.50
24614;DHT22;12760;46.296;25.290;2022-07-17T16:41:38;26.20;57.10
24614;DHT22;12760;46.296;25.290;2022-07-17T16:44:03;26.20;57.60
24614;DHT22;12760;46.296;25.290;2022-07-17T16:46:30;26.10;57.60
24614;DHT22;12760;46.296;25.290;2022-07-17T16:48:55;26.10;57.50
24614;DHT22;12760;46.296;25.290;2022-07-17T16:51:22;26.10;57.60
24614;DHT22;12760;46.296;25.290;2022-07-17T16:53:48;26.00;58.10
24614;DHT22;12760;46.296;25.290;2022-07-17T16:56:14;26.10;58.30
24614;DHT22;12760;46.296;25.290;2022-07-17T16:58:40;26.10;58.00
24614;DHT22;12760;46.296;25.290;2022-07-17T17:01:06;26.00;57.60
24614;DHT22;12760;46.296;25.290;2022-07-17T17:03:31;26.00;58.60
24614;DHT22;12760;46.296;25.290;2022-07-17T17:05:57;26.00;57.90
24614;DHT22;12760;46.296;25.290;2022-07-17T17:08:23;26.00;58.60
24614;DHT22;12760;46.296;25.290;2022-07-17T17:10:49;25.80;58.30
24614;DHT22;12760;46.296;25.290;2022-07-17T17:13:14;25.80;59.00
24614;DHT22;12760;46.296;25.290;2022-07-17T17:15:40;25.70;58.10
24614;DHT22;12760;46.296;25.290;2022-07-17T17:18:06;25.60;58.50
24614;DHT22;12760;46.296;25.290;2022-07-17T17:20:31;25.50;59.10
24614;DHT22;12760;46.296;25.290;2022-07-17T17:22:57;25.50;59.20
24614;DHT22;12760;46.296;25.290;2022-07-17T17:25:23;25.50;59.30
24614;DHT22;12760;46.296;25.290;2022-07-17T17:27:49;25.50;59.50
24614;DHT22;12760;46.296;25.290;2022-07-17T17:30:15;25.40;59.50
24614;DHT22;12760;46.296;25.290;2022-07-17T17:32:41;25.30;59.70
24614;DHT22;12760;46.296;25.290;2022-07-17T17:35:08;25.30;60.00
24614;DHT22;12760;46.296;25.290;2022-07-17T17:37:33;25.30;60.40
24614;DHT22;12760;46.296;25.290;2022-07-17T17:39:59;25.20;60.40
24614;DHT22;12760;46.296;25.290;2022-07-17T17:42:25;25.20;60.80
24614;DHT22;12760;46.296;25.290;2022-07-17T17:44:51;25.10;61.70
24614;DHT22;12760;46.296;25.290;2022-07-17T17:47:16;25.10;61.30
24614;DHT22;12760;46.296;25.290;2022-07-17T17:49:42;25.10;61.40